Time;durP1;ratioP1;P1;durP2;ratioP2;P2;SDS_P1;SDS_P2;PMS_P1;PMS_P2;Temp;Humidity;BMP_temperature;BMP_pressure;BME280_temperature;BME280_humidity;BME280_pressure;Samples;Min_cycle;Max_cycle;Signal;HPM_P1;HPM_P2
2022/06/16 00:00:01;;;;;;;8.70;2.40;;;;;;;21.32;56.54;99714.13;5038026;28;20315;-58
2022/06/16 00:02:33;;;;;;;15.80;2.87;;;;;;;21.40;54.24;99714.47;5038166;28;20299;-59
2022/06/16 00:05:04;;;;;;;8.57;3.33;;;;;;;21.39;55.83;99720.75;5037919;28;20303;-59
2022/06/16 00:07:35;;;;;;;52.03;4.30;;;;;;;21.48;54.71;99714.78;5037936;28;20351;-59
2022/06/16 00:10:07;;;;;;;15.50;3.77;;;;;;;21.57;55.26;99717.72;5029438;28;20302;-59
2022/06/16 00:12:38;;;;;;;8.93;3.50;;;;;;;21.72;54.10;99716.66;5017869;28;20808;-59
2022/06/16 00:15:12;;;;;;;12.27;2.90;;;;;;;21.69;53.83;99716.88;5018065;28;20618;-59
2022/06/16 00:17:44;;;;;;;8.47;2.83;;;;;;;21.74;54.30;99709.41;5028171;28;20338;-59
2022/06/16 00:20:15;;;;;;;12.50;2.87;;;;;;;21.92;53.54;99718.75;5031079;28;20323;-59
2022/06/16 00:22:46;;;;;;;11.00;2.90;;;;;;;21.96;53.59;99714.88;5018031;28;20296;-59
2022/06/16 00:25:17;;;;;;;8.43;2.10;;;;;;;22.06;52.75;99709.75;5022631;28;20595;-59
2022/06/16 00:27:47;;;;;;;8.40;2.40;;;;;;;22.07;52.50;99710.63;5038032;28;20288;-58
2022/06/16 00:30:18;;;;;;;33.50;6.37;;;;;;;22.26;52.42;99713.63;5037719;28;20339;-59
2022/06/16 00:32:50;;;;;;;10.77;2.63;;;;;;;22.17;52.79;99711.63;5037744;28;20448;-60
2022/06/16 00:35:21;;;;;;;9.37;2.50;;;;;;;22.15;52.56;99709.06;5037351;28;20379;-59
2022/06/16 00:37:51;;;;;;;13.83;2.83;;;;;;;22.18;52.50;99710.66;5026348;28;20301;-59
2022/06/16 00:40:22;;;;;;;7.60;2.27;;;;;;;22.26;52.24;99713.63;5036812;28;20355;-59
2022/06/16 00:42:53;;;;;;;6.60;2.40;;;;;;;22.35;53.68;99710.31;5037295;28;20386;-61
2022/06/16 00:45:46;;;;;;;7.10;2.00;;;;;;;22.36;52.46;99712.00;5036408;28;20287;-59
2022/06/16 00:48:23;;;;;;;11.87;2.50;;;;;;;22.35;52.14;99704.97;5041644;28;20302;-59
2022/06/16 00:51:00;;;;;;;9.10;2.80;;;;;;;22.21;51.95;99691.84;5042814;28;20331;-59
2022/06/16 00:53:31;;;;;;;10.77;2.50;;;;;;;22.32;51.98;99705.22;5042429;28;20656;-59
2022/06/16 00:56:01;;;;;;;9.33;2.97;;;;;;;22.37;52.31;99708.38;5042556;28;20291;-59
2022/06/16 00:58:36;;;;;;;35.27;4.07;;;;;;;22.47;52.29;99686.41;5041685;28;20355;-60
2022/06/16 01:01:07;;;;;;;9.27;2.43;;;;;;;22.52;51.77;99687.75;5041926;28;20759;-59
2022/06/16 01:06:27;;;;;;;;;;;;;;;22.48;51.50;99699.59;5042198;28;20060;-59
2022/06/16 01:09:01;;;;;;;15.00;2.73;;;;;;;22.52;51.53;99695.75;5042345;28;20203;-60
2022/06/16 01:14:55;;;;;;;22.93;3.57;;;;;;;22.76;52.50;99693.00;5042389;28;20355;-59
2022/06/16 01:17:42;;;;;;;10.80;2.60;;;;;;;22.68;52.08;99687.44;5043051;28;20284;-59
2022/06/16 01:20:29;;;;;;;7.73;3.10;;;;;;;22.77;52.48;99686.75;5042504;28;20052;-59
2022/06/16 01:23:55;;;;;;;10.30;3.03;;;;;;;22.74;51.58;99684.31;5041533;28;20296;-58
2022/06/16 01:26:57;;;;;;;12.27;2.77;;;;;;;22.73;52.03;99687.94;5039457;28;20068;-58
2022/06/16 01:29:39;;;;;;;17.50;3.27;;;;;;;22.82;50.95;99687.25;5041814;28;20056;-59
2022/06/16 01:32:16;;;;;;;10.43;2.70;;;;;;;22.85;51.79;99680.00;5041686;28;20346;-58
2022/06/16 01:34:56;;;;;;;9.77;3.07;;;;;;;22.79;51.38;99682.16;5043012;28;20119;-58
2022/06/16 01:37:37;;;;;;;11.93;3.07;;;;;;;22.95;51.84;99681.81;5042646;28;20108;-59
2022/06/16 01:40:13;;;;;;;9.87;3.07;;;;;;;23.02;51.34;99676.91;5042713;28;20391;-59
2022/06/16 01:42:50;;;;;;;11.87;3.10;;;;;;;22.92;50.95;99670.56;5042609;28;20068;-58
2022/06/16 01:45:27;;;;;;;13.77;2.67;;;;;;;22.99;50.97;99679.81;5042782;28;20045;-59
2022/06/16 01:48:00;;;;;;;12.53;2.67;;;;;;;22.98;51.04;99676.28;5042833;28;20053;-58
2022/06/16 01:50:34;;;;;;;55.77;5.30;;;;;;;22.88;51.11;99679.75;5042720;28;20051;-58
2022/06/16 01:53:08;;;;;;;14.37;2.80;;;;;;;22.92;51.72;99675.88;5042688;28;20116;-59
2022/06/16 01:55:54;;;;;;;21.33;3.77;;;;;;;22.97;52.45;99668.38;5042989;28;20042;-59
2022/06/16 01:58:29;;;;;;;18.40;3.50;;;;;;;22.97;51.88;99679.03;5046307;28;20052;-58
2022/06/16 02:01:07;;;;;;;20.90;5.37;;;;;;;22.95;52.04;99678.31;5046695;28;20276;-59
2022/06/16 02:03:41;;;;;;;13.87;3.03;;;;;;;22.95;52.61;99664.97;5046536;28;20383;-58
2022/06/16 02:06:19;;;;;;;9.03;2.70;;;;;;;22.92;51.91;99665.22;5046604;28;20403;-59
2022/06/16 02:08:55;;;;;;;16.17;2.50;;;;;;;22.73;51.18;99666.63;5046515;28;20053;-59
2022/06/16 02:11:29;;;;;;;18.60;2.63;;;;;;;22.76;51.77;99660.22;5046583;28;20283;-59
2022/06/16 02:14:03;;;;;;;8.67;2.53;;;;;;;22.58;51.50;99641.16;5046212;28;20058;-59
2022/06/16 02:16:38;;;;;;;17.10;3.07;;;;;;;22.54;51.90;99650.34;5046165;28;20060;-59
2022/06/16 02:19:13;;;;;;;19.27;3.60;;;;;;;22.59;52.53;99656.19;5046290;28;20124;-59
2022/06/16 02:21:46;;;;;;;15.83;3.07;;;;;;;22.64;52.06;99640.72;5046274;28;20064;-58
2022/06/16 02:24:19;;;;;;;15.83;2.57;;;;;;;22.57;52.12;99644.81;5046422;28;20055;-59
2022/06/16 02:26:52;;;;;;;11.33;2.53;;;;;;;22.31;51.88;99634.31;5046273;28;20068;-60
2022/06/16 02:29:29;;;;;;;18.37;2.87;;;;;;;22.30;51.40;99637.94;5045999;28;20117;-59
2022/06/16 02:32:17;;;;;;;14.60;3.13;;;;;;;22.04;51.95;99642.53;5046187;28;20059;-59
2022/06/16 02:34:55;;;;;;;9.95;2.53;;;;;;;21.80;51.88;99642.50;5046024;28;20063;-58
2022/06/16 02:37:47;;;;;;;12.38;3.25;;;;;;;21.80;52.32;99637.19;5046016;28;20041;-59
2022/06/16 02:40:45;;;;;;;17.03;2.60;;;;;;;21.80;52.04;99634.53;5045988;28;20050;-59
2022/06/16 02:43:31;;;;;;;16.00;2.92;;;;;;;21.67;52.03;99639.03;5033784;28;20045;-59
2022/06/16 02:46:06;;;;;;;39.97;4.10;;;;;;;21.76;52.57;99641.00;5045806;28;20083;-59
2022/06/16 02:48:45;;;;;;;16.00;3.03;;;;;;;21.84;52.69;99641.31;5045631;28;20311;-58
2022/06/16 02:51:19;;;;;;;17.10;3.43;;;;;;;21.91;52.68;99637.22;5045634;28;20657;-59
2022/06/16 02:53:58;;;;;;;15.40;2.77;;;;;;;21.87;51.95;99635.78;5045590;28;20483;-58
2022/06/16 02:56:32;;;;;;;;;;;;;;;21.72;51.64;99626.25;5045898;28;20286;-60
2022/06/16 02:59:06;;;;;;;12.37;3.00;;;;;;;21.62;51.82;99630.56;5045325;28;19939;-59
2022/06/16 03:01:37;;;;;;;18.03;4.30;;;;;;;21.61;52.45;99618.19;5045675;28;20276;-58
2022/06/16 03:04:11;;;;;;;15.20;3.00;;;;;;;21.49;52.77;99617.28;5045321;28;20304;-58
2022/06/16 03:06:42;;;;;;;17.87;3.60;;;;;;;21.47;52.62;99622.72;5045169;28;20288;-58
2022/06/16 03:09:15;;;;;;;14.00;2.93;;;;;;;21.42;52.70;99608.06;5044460;28;20602;-58
2022/06/16 03:11:45;;;;;;;13.73;3.20;;;;;;;21.39;52.36;99619.78;5045449;28;20347;-59
2022/06/16 03:14:16;;;;;;;11.23;3.30;;;;;;;21.37;52.63;99610.16;5045345;28;20345;-59
2022/06/16 03:16:46;;;;;;;15.97;3.23;;;;;;;21.40;53.55;99616.13;5045094;28;20654;-59
2022/06/16 03:19:21;;;;;;;11.77;3.40;;;;;;;21.30;53.20;99609.75;5045555;28;20294;-59
2022/06/16 03:21:52;;;;;;;32.93;4.93;;;;;;;21.31;53.57;99611.44;5045629;28;20307;-59
2022/06/16 03:24:22;;;;;;;16.03;3.63;;;;;;;21.10;52.87;99588.09;5045052;28;20304;-59
2022/06/16 03:26:53;;;;;;;16.20;3.43;;;;;;;21.36;53.60;99614.63;5044836;28;20303;-59
2022/06/16 03:29:24;;;;;;;19.77;5.47;;;;;;;21.38;52.81;99612.69;5044977;28;20351;-59
2022/06/16 03:31:55;;;;;;;15.20;6.70;;;;;;;21.20;53.35;99587.47;5044724;28;20303;-59
2022/06/16 03:34:27;;;;;;;15.87;3.40;;;;;;;21.36;52.57;99601.31;5045019;28;20685;-59
2022/06/16 03:36:58;;;;;;;47.53;5.17;;;;;;;21.32;52.37;99597.22;5044741;28;20338;-59
2022/06/16 03:39:29;;;;;;;80.47;8.13;;;;;;;21.23;52.16;99592.53;5044915;28;20618;-60
2022/06/16 03:42:00;;;;;;;53.40;6.00;;;;;;;21.26;52.94;99594.97;5044443;28;20483;-60
2022/06/16 03:44:30;;;;;;;19.67;4.33;;;;;;;21.21;52.37;99605.09;5044536;28;20314;-59
2022/06/16 03:47:01;;;;;;;30.97;6.57;;;;;;;21.19;53.02;99596.38;5044385;28;20288;-59
2022/06/16 03:49:33;;;;;;;17.07;5.80;;;;;;;21.25;52.80;99586.16;5044419;28;20300;-60
2022/06/16 03:52:04;;;;;;;15.90;4.80;;;;;;;21.27;52.79;99586.06;5044384;28;20280;-59
2022/06/16 03:54:35;;;;;;;19.03;6.40;;;;;;;21.28;52.80;99577.13;5043857;28;20288;-60
2022/06/16 03:57:06;;;;;;;20.83;4.87;;;;;;;21.24;52.77;99583.59;5044290;28;20288;-59
2022/06/16 03:59:37;;;;;;;16.80;3.50;;;;;;;21.18;53.24;99573.44;5044542;28;20513;-59
2022/06/16 04:02:07;;;;;;;11.83;3.93;;;;;;;21.18;53.40;99573.44;5044325;28;20292;-59
2022/06/16 04:04:40;;;;;;;21.07;4.07;;;;;;;21.22;54.01;99572.25;5044077;28;20295;-60
2022/06/16 04:07:12;;;;;;;11.67;3.50;;;;;;;21.15;53.23;99549.75;5044073;28;20284;-59
2022/06/16 04:09:43;;;;;;;12.73;3.47;;;;;;;21.41;53.44;99575.31;5044383;28;20782;-59
2022/06/16 04:12:13;;;;;;;13.17;3.00;;;;;;;21.59;53.39;99577.59;5044268;28;20291;-58
2022/06/16 04:14:44;;;;;;;14.93;3.60;;;;;;;21.73;53.18;99569.44;5043645;28;20311;-59
2022/06/16 04:17:15;;;;;;;10.70;2.80;;;;;;;21.85;52.64;99565.88;5043956;28;20311;-58
2022/06/16 04:22:35;;;;;;;11.57;2.87;;;;;;;21.22;50.70;99476.63;5043939;28;20303;-58
2022/06/16 04:25:06;;;;;;;11.73;2.33;;;;;;;21.56;51.83;99543.25;5043132;28;20352;-58
2022/06/16 04:27:37;;;;;;;11.47;2.97;;;;;;;21.78;50.90;99572.63;5043243;28;20899;-59
2022/06/16 04:30:09;;;;;;;13.37;2.73;;;;;;;21.69;51.49;99565.31;5043481;28;20686;-59
2022/06/16 04:32:40;;;;;;;20.63;3.33;;;;;;;21.88;52.61;99563.00;5043314;28;20311;-58
2022/06/16 04:35:13;;;;;;;16.37;3.10;;;;;;;22.01;51.99;99567.41;5043095;28;20292;-59
2022/06/16 04:37:43;;;;;;;17.13;3.20;;;;;;;22.00;51.40;99563.06;5041678;28;20302;-59
2022/06/16 04:40:14;;;;;;;12.77;2.80;;;;;;;22.00;51.24;99555.06;5043511;28;20283;-59
2022/06/16 04:42:45;;;;;;;11.93;2.50;;;;;;;22.02;51.26;99563.78;5041413;28;20338;-59
2022/06/16 04:45:15;;;;;;;16.53;2.20;;;;;;;22.03;50.77;99565.47;5040425;28;20315;-58
2022/06/16 04:47:46;;;;;;;9.20;2.53;;;;;;;21.94;50.97;99562.56;5043444;28;20673;-58
2022/06/16 04:50:18;;;;;;;6.30;2.33;;;;;;;21.67;50.88;99527.38;5043313;28;20350;-58
2022/06/16 04:52:49;;;;;;;10.30;2.37;;;;;;;21.67;51.13;99554.81;5041059;28;20303;-58
2022/06/16 04:55:20;;;;;;;15.13;2.80;;;;;;;21.60;51.35;99563.34;5043348;28;20335;-59
2022/06/16 04:57:51;;;;;;;14.00;2.33;;;;;;;21.60;51.54;99560.69;5043374;28;20351;-59
2022/06/16 05:00:22;;;;;;;14.07;2.27;;;;;;;21.56;51.82;99560.06;5043365;28;20302;-58
2022/06/16 05:02:54;;;;;;;8.63;2.33;;;;;;;21.58;51.56;99551.97;5042991;28;20359;-59
2022/06/16 05:05:27;;;;;;;10.73;2.37;;;;;;;21.79;51.85;99562.81;5043212;28;20366;-59
2022/06/16 05:07:57;;;;;;;11.30;2.53;;;;;;;21.79;51.24;99555.72;5043156;28;20378;-59
2022/06/16 05:10:28;;;;;;;13.13;2.60;;;;;;;21.71;51.86;99555.41;5043215;28;20305;-59
2022/06/16 05:12:59;;;;;;;9.90;2.37;;;;;;;21.75;52.27;99555.09;5043373;28;20653;-59
2022/06/16 05:15:29;;;;;;;9.63;2.23;;;;;;;21.82;51.00;99552.81;5043082;28;20319;-60
2022/06/16 05:18:00;;;;;;;8.87;2.40;;;;;;;21.67;50.33;99543.34;5043243;28;20283;-59
2022/06/16 05:20:32;;;;;;;13.40;2.47;;;;;;;21.52;51.46;99546.16;5042834;28;20356;-58
2022/06/16 05:23:03;;;;;;;10.73;1.90;;;;;;;21.50;52.25;99542.75;5042885;28;20292;-58
2022/06/16 05:25:33;;;;;;;7.70;2.23;;;;;;;21.58;51.63;99538.69;5042858;28;20361;-58
2022/06/16 05:28:04;;;;;;;10.77;1.97;;;;;;;21.62;51.32;99533.03;5042574;28;20284;-59
2022/06/16 05:30:35;;;;;;;12.47;2.07;;;;;;;21.61;51.21;99527.81;5042034;28;20351;-59
2022/06/16 05:33:06;;;;;;;12.27;1.93;;;;;;;21.63;51.99;99532.06;5042567;28;20291;-59
2022/06/16 05:35:38;;;;;;;8.30;2.73;;;;;;;21.74;51.91;99524.16;5042554;28;20310;-59
2022/06/16 05:38:09;;;;;;;12.07;2.60;;;;;;;21.82;51.59;99523.56;5042920;28;20284;-59
2022/06/16 05:40:40;;;;;;;8.50;1.80;;;;;;;21.82;51.14;99515.59;5042527;28;20285;-58
2022/06/16 05:43:10;;;;;;;8.93;2.20;;;;;;;22.04;51.36;99521.94;5042031;28;20307;-58
2022/06/16 05:45:41;;;;;;;17.37;2.20;;;;;;;22.05;49.40;99529.81;5041559;28;20303;-58
2022/06/16 05:48:11;;;;;;;7.87;2.00;;;;;;;21.97;49.85;99519.75;5038990;28;20318;-58
2022/06/16 05:50:44;;;;;;;12.13;1.63;;;;;;;21.85;50.86;99514.53;5041396;28;20348;-58
2022/06/16 05:53:14;;;;;;;12.83;2.03;;;;;;;21.74;51.32;99508.19;5039982;28;20311;-59
2022/06/16 05:55:45;;;;;;;14.03;1.93;;;;;;;21.67;51.50;99512.28;5041923;28;20292;-59
2022/06/16 05:58:17;;;;;;;15.80;2.00;;;;;;;21.63;51.45;99521.44;5041193;28;20306;-58
2022/06/16 06:00:48;;;;;;;9.03;2.00;;;;;;;21.56;51.49;99516.69;5041125;28;20356;-60
2022/06/16 06:03:19;;;;;;;12.53;2.00;;;;;;;21.69;51.87;99520.09;5042472;28;20290;-58
2022/06/16 06:05:51;;;;;;;12.00;1.67;;;;;;;21.69;50.62;99515.66;5042578;28;20076;-58
2022/06/16 06:16:50;;;;;;;8.83;1.63;;;;;;;21.90;50.35;99499.91;5042003;28;20947;-58
2022/06/16 06:19:27;;;;;;;9.37;1.80;;;;;;;21.78;50.66;99492.00;5042580;28;20283;-58
2022/06/16 06:22:06;;;;;;;14.83;2.60;;;;;;;21.86;50.46;99495.75;5042471;28;20292;-59
2022/06/16 06:24:39;;;;;;;6.53;1.87;;;;;;;21.91;50.39;99487.44;5041782;28;20541;-59
2022/06/16 06:27:16;;;;;;;4.83;1.70;;;;;;;22.06;50.97;99491.59;5041846;28;20304;-59
2022/06/16 06:29:48;;;;;;;10.87;1.93;;;;;;;22.11;50.58;99499.22;5042019;28;20285;-58
2022/06/16 06:32:21;;;;;;;9.67;1.67;;;;;;;22.00;50.00;99486.75;5042486;28;20414;-58
2022/06/16 06:34:55;;;;;;;6.30;2.00;;;;;;;21.91;50.27;99490.94;5042720;28;20653;-58
2022/06/16 06:37:28;;;;;;;11.37;2.30;;;;;;;22.01;50.25;99484.94;5042301;28;20351;-58
2022/06/16 06:40:00;;;;;;;10.27;1.73;;;;;;;22.09;50.71;99491.38;5041953;28;20288;-60
2022/06/16 06:42:30;;;;;;;9.33;1.97;;;;;;;22.11;50.50;99488.59;5043647;28;20343;-59
2022/06/16 06:45:02;;;;;;;6.63;1.63;;;;;;;22.10;49.71;99481.59;5045858;28;20276;-59
2022/06/16 06:47:33;;;;;;;7.27;1.77;;;;;;;22.02;50.57;99478.66;5045543;28;20343;-59
2022/06/16 06:50:04;;;;;;;8.33;1.70;;;;;;;22.01;50.71;99482.28;5043556;28;20311;-59
2022/06/16 06:52:37;;;;;;;7.77;1.80;;;;;;;22.00;51.35;99477.94;5044787;28;20470;-59
2022/06/16 06:55:08;;;;;;;5.97;1.60;;;;;;;22.01;51.32;99476.97;5045472;28;20806;-59
2022/06/16 06:57:38;;;;;;;4.77;1.50;;;;;;;22.07;51.72;99472.03;5045793;28;20359;-59
2022/06/16 07:00:11;;;;;;;7.77;1.73;;;;;;;22.28;52.00;99480.19;5042188;28;20338;-59
2022/06/16 07:02:41;;;;;;;8.70;1.87;;;;;;;22.23;50.68;99471.72;5044372;28;20292;-59
2022/06/16 07:05:13;;;;;;;6.10;1.67;;;;;;;22.14;51.05;99467.06;5045079;28;20347;-59
2022/06/16 07:07:50;;;;;;;7.57;1.50;;;;;;;22.00;50.65;99472.63;5044253;28;20362;-58
2022/06/16 07:10:21;;;;;;;4.50;1.10;;;;;;;21.78;50.45;99471.56;5045856;28;20294;-59
2022/06/16 07:12:52;;;;;;;10.47;1.53;;;;;;;21.47;51.32;99471.22;5044017;28;20316;-59
2022/06/16 07:15:23;;;;;;;7.47;1.70;;;;;;;21.21;52.15;99467.78;5045456;28;20296;-59
2022/06/16 07:17:53;;;;;;;5.07;1.40;;;;;;;20.85;52.73;99466.00;5044715;28;20346;-60
2022/06/16 07:20:24;;;;;;;10.27;1.60;;;;;;;20.51;53.75;99463.03;5044646;28;20288;-59
2022/06/16 07:22:57;;;;;;;10.70;2.03;;;;;;;20.31;54.65;99464.44;5043232;28;20335;-60
2022/06/16 07:25:28;;;;;;;5.67;1.50;;;;;;;20.18;55.32;99461.78;5044400;28;20483;-57
2022/06/16 07:28:00;;;;;;;11.47;2.07;;;;;;;20.17;56.19;99465.41;5044266;28;20734;-59
2022/06/16 07:30:31;;;;;;;13.60;2.43;;;;;;;20.20;56.05;99469.63;5043034;28;20280;-59
2022/06/16 07:33:01;;;;;;;9.20;1.73;;;;;;;20.29;56.35;99457.53;5044691;28;20283;-59
2022/06/16 07:35:32;;;;;;;4.50;1.47;;;;;;;20.49;55.40;99456.97;5043891;28;20294;-59
2022/06/16 07:38:04;;;;;;;8.57;1.40;;;;;;;20.59;55.75;99452.78;5045150;28;20291;-58
2022/06/16 07:40:35;;;;;;;9.57;1.70;;;;;;;20.76;55.36;99451.56;5044769;28;20318;-58
2022/06/16 07:43:07;;;;;;;4.93;1.23;;;;;;;20.74;54.45;99437.53;5044559;28;20287;-58
2022/06/16 07:45:38;;;;;;;7.13;1.30;;;;;;;20.93;54.81;99453.00;5044514;28;20430;-59
2022/06/16 07:48:09;;;;;;;3.87;1.60;;;;;;;21.08;54.70;99451.88;5044443;28;20312;-59
2022/06/16 07:50:39;;;;;;;2.87;1.20;;;;;;;21.25;54.34;99447.16;5044482;28;20339;-58
2022/06/16 07:53:12;;;;;;;4.17;1.60;;;;;;;21.31;54.27;99446.69;5044067;28;20284;-59
2022/06/16 07:55:42;;;;;;;4.90;1.23;;;;;;;21.25;54.05;99441.84;5044162;28;20363;-59
2022/06/16 07:58:13;;;;;;;14.07;1.33;;;;;;;21.04;53.75;99455.75;5044393;28;20303;-59
2022/06/16 08:00:44;;;;;;;18.37;1.50;;;;;;;20.67;54.22;99442.47;5043687;28;20299;-59
2022/06/16 08:03:15;;;;;;;13.67;2.57;;;;;;;20.59;55.13;99444.81;5044252;28;20292;-59
2022/06/16 08:05:45;;;;;;;11.43;2.23;;;;;;;20.41;55.41;99446.06;5043181;28;20295;-59
2022/06/16 08:08:22;;;;;;;10.57;1.67;;;;;;;19.87;55.95;99403.84;5044142;28;20309;-59
2022/06/16 08:10:53;;;;;;;3.57;1.37;;;;;;;19.92;56.53;99449.44;5044267;28;20298;-59
2022/06/16 08:13:26;;;;;;;9.57;1.50;;;;;;;19.76;56.92;99434.59;5043992;28;20590;-59
2022/06/16 08:15:57;;;;;;;4.67;1.23;;;;;;;19.42;56.69;99392.72;5043766;28;20319;-59
2022/06/16 08:18:28;;;;;;;16.33;1.60;;;;;;;19.28;57.16;99385.72;5043911;28;20373;-59
2022/06/16 08:20:58;;;;;;;14.60;4.90;;;;;;;19.52;57.53;99447.66;5043982;28;20355;-59
2022/06/16 08:23:31;;;;;;;9.23;4.13;;;;;;;19.42;57.63;99451.00;5042987;28;20625;-59
2022/06/16 08:26:02;;;;;;;6.10;1.77;;;;;;;19.36;57.98;99442.50;5043513;28;20285;-59
2022/06/16 08:28:34;;;;;;;8.57;2.00;;;;;;;19.30;57.83;99448.22;5042955;28;20319;-60
2022/06/16 08:31:05;;;;;;;27.57;1.90;;;;;;;19.32;58.53;99446.31;5043459;28;20296;-59
2022/06/16 08:33:36;;;;;;;5.80;1.27;;;;;;;19.56;58.26;99450.94;5043373;28;20291;-59
2022/06/16 08:36:07;;;;;;;12.53;2.50;;;;;;;19.71;57.67;99442.00;5042876;28;20288;-59
2022/06/16 08:38:39;;;;;;;7.20;1.77;;;;;;;19.66;57.75;99449.38;5042389;28;21038;-59
2022/06/16 08:41:13;;;;;;;8.70;1.60;;;;;;;19.55;58.15;99420.13;5041971;28;20290;-59
2022/06/16 08:43:51;;;;;;;4.53;2.03;;;;;;;19.72;58.07;99427.81;5043075;28;20296;-59
2022/06/16 08:46:25;;;;;;;7.57;1.73;;;;;;;19.82;57.57;99431.53;5041574;28;20633;-59
2022/06/16 08:49:03;;;;;;;8.97;1.20;;;;;;;20.05;57.25;99450.31;5042131;28;20342;-59
2022/06/16 08:51:48;;;;;;;7.87;1.60;;;;;;;20.02;57.21;99455.84;5042071;28;20296;-59
2022/06/16 08:54:37;;;;;;;8.70;1.00;;;;;;;19.97;56.67;99458.81;5042261;28;20303;-59
2022/06/16 08:57:16;;;;;;;2.45;1.30;;;;;;;19.91;56.59;99453.06;5041932;28;20295;-59
2022/06/16 08:59:52;;;;;;;11.55;3.58;;;;;;;19.80;57.26;99454.63;5043207;28;20072;-59
2022/06/16 09:02:31;;;;;;;12.23;5.37;;;;;;;19.81;57.41;99448.38;5042812;28;20069;-58
2022/06/16 09:05:10;;;;;;;19.50;7.05;;;;;;;19.77;56.59;99446.91;5040488;28;20280;-59
2022/06/16 09:07:46;;;;;;;;;;;;;;;19.78;56.41;99458.34;5043255;28;20057;-59
2022/06/16 09:10:27;;;;;;;14.70;7.13;;;;;;;19.74;56.81;99465.63;5042933;28;20235;-58
2022/06/16 09:13:45;;;;;;;12.67;5.80;;;;;;;19.66;56.73;99470.56;5042913;28;20275;-59
2022/06/16 09:16:28;;;;;;;12.67;3.67;;;;;;;19.53;57.02;99465.25;4997277;28;20483;-59
2022/06/16 09:19:17;;;;;;;3.27;1.50;;;;;;;19.58;56.60;99472.91;5041881;28;20354;-59
2022/06/16 09:21:58;;;;;;;5.03;1.40;;;;;;;19.50;57.00;99467.25;5040960;28;20333;-59
2022/06/16 09:24:41;;;;;;;5.17;1.50;;;;;;;19.51;56.65;99471.59;5041681;28;20288;-60
2022/06/16 09:27:20;;;;;;;5.90;1.07;;;;;;;19.40;56.86;99470.50;5040032;28;20390;-59
2022/06/16 09:29:55;;;;;;;8.80;2.10;;;;;;;19.31;57.90;99460.50;5042209;28;20313;-59
2022/06/16 09:32:31;;;;;;;5.37;1.40;;;;;;;19.28;58.59;99466.00;5041697;28;20626;-58
2022/06/16 09:35:16;;;;;;;4.07;1.40;;;;;;;19.11;58.54;99466.25;5042759;28;20299;-58
2022/06/16 09:37:53;;;;;;;8.50;1.23;;;;;;;19.05;58.46;99475.44;5042938;28;20955;-59
2022/06/16 09:40:29;;;;;;;4.30;1.20;;;;;;;18.90;58.36;99461.38;5042776;28;20602;-59
2022/06/16 09:43:10;;;;;;;2.77;1.10;;;;;;;18.91;58.78;99478.94;5042824;28;20555;-59
2022/06/16 09:45:47;;;;;;;5.77;1.00;;;;;;;18.92;58.35;99479.78;5042320;28;20292;-58
2022/06/16 09:48:23;;;;;;;5.80;1.20;;;;;;;18.80;58.48;99481.44;5041751;28;20670;-59
2022/06/16 09:50:59;;;;;;;7.60;1.43;;;;;;;18.63;58.73;99468.38;5042353;28;20288;-58
2022/06/16 09:53:38;;;;;;;7.17;1.30;;;;;;;18.46;59.12;99457.03;5042031;28;20299;-59
2022/06/16 09:56:12;;;;;;;;;;;;;;;18.37;59.17;99469.97;5043058;28;20587;-59
2022/06/16 09:58:49;;;;;;;5.87;1.00;;;;;;;18.22;59.71;99474.41;5042593;28;19925;-58
2022/06/16 10:01:22;;;;;;;3.27;0.90;;;;;;;18.07;60.25;99477.06;5042684;28;20304;-59
2022/06/16 10:03:58;;;;;;;4.50;1.10;;;;;;;17.92;60.86;99472.66;5042941;28;20283;-59
2022/06/16 10:06:38;;;;;;;2.43;1.17;;;;;;;17.67;61.50;99474.09;5042411;28;20291;-58
2022/06/16 10:09:18;;;;;;;7.27;1.33;;;;;;;17.44;62.29;99471.91;5042567;28;20375;-59
2022/06/16 10:11:59;;;;;;;3.47;1.10;;;;;;;17.24;63.00;99468.59;5042557;28;20327;-59
2022/06/16 10:14:39;;;;;;;9.97;1.97;;;;;;;17.02;63.47;99466.34;5042525;28;20291;-59
2022/06/16 10:17:11;;;;;;;2.63;1.30;;;;;;;16.81;64.27;99468.34;5043785;28;20295;-58
2022/06/16 10:19:45;;;;;;;4.20;1.70;;;;;;;16.67;64.48;99473.50;5046013;28;20583;-58
2022/06/16 10:22:19;;;;;;;8.27;3.20;;;;;;;16.50;65.03;99473.53;5046276;28;20329;-58
2022/06/16 10:24:56;;;;;;;6.57;2.03;;;;;;;16.31;65.29;99466.63;5046192;28;20330;-58
2022/06/16 10:27:31;;;;;;;11.53;1.40;;;;;;;16.10;65.60;99459.81;5045594;28;20292;-58
2022/06/16 10:30:07;;;;;;;3.43;0.87;;;;;;;16.02;66.04;99456.75;5046141;28;20306;-58
2022/06/16 10:32:43;;;;;;;7.73;1.10;;;;;;;15.85;66.05;99434.78;5045830;28;20295;-58
2022/06/16 10:35:20;;;;;;;6.43;1.13;;;;;;;15.89;66.79;99462.63;5045690;28;20350;-58
2022/06/16 10:37:53;;;;;;;8.07;1.30;;;;;;;15.79;67.19;99460.56;5045275;28;20330;-58
2022/06/16 10:40:29;;;;;;;2.50;1.10;;;;;;;15.70;67.87;99461.84;5045057;28;20283;-58
2022/06/16 10:43:21;;;;;;;6.23;1.50;;;;;;;15.65;68.14;99469.09;5046151;28;20284;-58
2022/06/16 10:46:04;;;;;;;7.03;1.17;;;;;;;15.59;68.30;99472.06;5045647;28;20307;-58
2022/06/16 10:48:38;;;;;;;4.20;1.40;;;;;;;15.49;68.81;99475.13;5045633;28;20361;-58
2022/06/16 10:51:14;;;;;;;5.93;2.30;;;;;;;15.45;69.18;99473.59;5045959;28;20272;-57
2022/06/16 10:53:47;;;;;;;3.20;1.40;;;;;;;15.34;69.56;99481.16;5044086;28;20287;-57
2022/06/16 10:56:20;;;;;;;3.20;1.57;;;;;;;15.23;69.73;99467.69;5043683;28;20557;-58
2022/06/16 10:58:59;;;;;;;3.67;2.13;;;;;;;15.23;70.00;99478.22;5045018;28;20291;-59
2022/06/16 11:01:40;;;;;;;5.13;1.50;;;;;;;15.16;70.37;99471.53;5045488;28;20754;-57
2022/06/16 11:04:13;;;;;;;4.60;1.47;;;;;;;15.05;70.60;99465.00;5045409;28;20091;-58
2022/06/16 11:06:49;;;;;;;3.80;1.50;;;;;;;15.01;70.76;99471.31;5043709;28;20531;-58
2022/06/16 11:09:23;;;;;;;10.63;2.73;;;;;;;14.93;70.96;99481.34;5045195;28;20631;-59
2022/06/16 11:11:57;;;;;;;8.00;2.50;;;;;;;14.84;71.48;99476.50;5045427;28;20498;-57
2022/06/16 11:14:35;;;;;;;10.60;3.10;;;;;;;14.73;72.13;99477.03;5044634;28;20307;-57
2022/06/16 11:17:11;;;;;;;12.57;2.70;;;;;;;14.56;72.52;99482.19;5044839;28;20607;-58
2022/06/16 11:19:46;;;;;;;14.77;2.93;;;;;;;14.45;73.13;99485.25;5045075;28;20445;-58
2022/06/16 11:22:26;;;;;;;14.80;3.03;;;;;;;14.40;73.48;99481.97;5045118;28;20481;-58
2022/06/16 11:25:02;;;;;;;18.77;2.90;;;;;;;14.36;74.18;99490.94;5042774;28;20649;-58
2022/06/16 11:27:41;;;;;;;17.47;2.63;;;;;;;14.21;74.32;99453.06;5043069;28;20276;-58
2022/06/16 11:30:38;;;;;;;27.65;2.42;;;;;;;14.15;74.71;99456.81;5041574;28;20311;-58
2022/06/16 11:36:18;;;;;;;14.63;2.17;;;;;;;14.41;75.15;99478.44;5040694;28;20283;-58
2022/06/16 11:38:56;;;;;;;19.58;2.53;;;;;;;14.50;75.15;99478.00;5043127;28;20281;-58
2022/06/16 11:41:29;;;;;;;18.17;3.07;;;;;;;14.46;75.05;99476.47;5043481;28;20107;-57
2022/06/16 11:44:21;;;;;;;19.90;3.13;;;;;;;14.37;75.37;99476.88;5044691;28;20276;-57
2022/06/16 11:46:58;;;;;;;11.20;3.23;;;;;;;14.43;75.96;99487.13;5044457;28;20280;-59
2022/06/16 11:49:37;;;;;;;8.83;2.17;;;;;;;14.36;76.12;99489.16;5042163;28;20330;-58
2022/06/16 11:52:19;;;;;;;12.90;2.75;;;;;;;14.28;76.09;99478.13;5044473;28;20334;-58
2022/06/16 11:54:59;;;;;;;7.90;2.05;;;;;;;14.23;76.35;99480.97;5044719;28;20053;-58
2022/06/16 11:57:38;;;;;;;9.10;2.30;;;;;;;14.21;76.56;99480.19;5044506;28;20129;-58
2022/06/16 12:00:22;;;;;;;6.50;2.10;;;;;;;14.15;76.47;99480.47;5044568;28;20537;-59
2022/06/16 12:03:39;;;;;;;7.27;1.97;;;;;;;13.99;76.68;99476.78;5044354;28;20320;-57
2022/06/16 12:06:30;;;;;;;7.03;2.50;;;;;;;13.93;76.86;99470.03;5037721;28;20568;-57
2022/06/16 12:09:10;;;;;;;7.83;2.10;;;;;;;13.85;76.94;99468.63;5044007;28;20901;-58
2022/06/16 12:11:48;;;;;;;8.25;2.10;;;;;;;13.90;77.01;99477.16;5044041;28;20284;-57
2022/06/16 12:14:44;;;;;;;9.77;2.80;;;;;;;13.75;77.45;99474.28;5044228;28;20115;-57
2022/06/16 12:17:21;;;;;;;11.32;3.13;;;;;;;13.59;77.98;99487.16;5042664;28;20299;-57
2022/06/16 12:20:02;;;;;;;9.25;2.63;;;;;;;13.46;77.96;99477.25;5044059;28;20282;-57
2022/06/16 12:23:00;;;;;;;11.52;2.75;;;;;;;13.36;78.43;99472.38;5043856;28;20053;-58
2022/06/16 12:25:37;;;;;;;8.80;2.58;;;;;;;13.38;78.55;99474.94;5044027;28;20045;-58